createdAt,value
2018-03-23T00:00:36.860Z,79.78
2018-03-23T00:03:04.391Z,80.23
2018-03-23T00:05:31.883Z,79.77
2018-03-23T00:07:59.455Z,79.37
2018-03-23T00:10:27.008Z,80.23
2018-03-23T00:12:54.541Z,79.49
2018-03-23T00:15:22.045Z,80.16
2018-03-23T00:17:49.581Z,80.26
2018-03-23T00:20:17.080Z,80.59
2018-03-23T00:22:44.600Z,80.72
2018-03-23T00:25:12.101Z,80.91
2018-03-23T00:27:39.617Z,80.70
2018-03-23T00:30:07.124Z,81.44
2018-03-23T00:32:34.651Z,81.07
2018-03-23T00:35:02.151Z,81.32
2018-03-23T00:37:29.649Z,81.36
2018-03-23T00:39:57.209Z,81.55
2018-03-23T00:42:24.767Z,82.46
2018-03-23T00:44:52.300Z,82.64
2018-03-23T00:47:19.895Z,82.80
2018-03-23T00:49:47.429Z,83.12
2018-03-23T00:52:14.950Z,83.27
2018-03-23T00:54:42.463Z,83.62
2018-03-23T00:57:10.132Z,82.91
2018-03-23T00:59:37.657Z,83.51
2018-03-23T01:02:05.181Z,83.96
2018-03-23T01:04:32.700Z,84.01
2018-03-23T01:07:00.272Z,84.20
2018-03-23T01:09:27.831Z,84.33
2018-03-23T01:11:55.331Z,84.14
2018-03-23T01:14:22.848Z,83.98
2018-03-23T01:16:50.357Z,84.05
2018-03-23T01:19:17.880Z,83.64
2018-03-23T01:21:45.432Z,83.78
2018-03-23T01:24:12.992Z,84.18
2018-03-23T01:26:40.524Z,84.30
2018-03-23T01:29:08.017Z,84.21
2018-03-23T01:31:35.543Z,84.08
2018-03-23T01:34:03.040Z,84.35
2018-03-23T01:36:30.600Z,84.14
2018-03-23T01:38:58.072Z,84.23
2018-03-23T01:41:25.696Z,84.35
2018-03-23T01:43:53.269Z,84.15
2018-03-23T01:46:20.885Z,84.05
2018-03-23T01:48:48.403Z,84.13
2018-03-23T01:51:15.923Z,84.10
2018-03-23T01:53:45.151Z,83.98
2018-03-23T01:56:12.677Z,84.04
2018-03-23T01:58:40.243Z,83.75
2018-03-23T02:01:07.788Z,83.85
2018-03-23T02:03:35.367Z,84.31
2018-03-23T02:06:02.947Z,84.10
2018-03-23T02:08:30.463Z,84.13
2018-03-23T02:10:57.975Z,83.97
2018-03-23T02:13:25.541Z,83.91
2018-03-23T02:15:53.351Z,84.33
2018-03-23T02:18:20.847Z,84.45
2018-03-23T02:20:48.403Z,84.33
2018-03-23T02:23:15.900Z,84.09
2018-03-23T02:25:43.513Z,83.67
2018-03-23T02:28:11.015Z,83.77
2018-03-23T02:30:38.537Z,84.03
2018-03-23T02:33:06.088Z,84.28
2018-03-23T02:35:33.587Z,84.26
2018-03-23T02:38:01.104Z,84.28
2018-03-23T02:40:28.600Z,84.48
2018-03-23T02:42:56.125Z,84.86
2018-03-23T02:45:23.659Z,84.72
2018-03-23T02:47:51.205Z,84.62
2018-03-23T02:50:18.744Z,84.56
2018-03-23T02:52:46.260Z,84.39
2018-03-23T02:55:13.778Z,84.25
2018-03-23T02:57:41.313Z,84.41
2018-03-23T03:00:08.808Z,84.23
2018-03-23T03:02:36.396Z,83.73
2018-03-23T03:05:03.938Z,84.19
2018-03-23T03:07:31.549Z,83.09
2018-03-23T03:09:59.073Z,83.49
2018-03-23T03:12:26.839Z,83.91
2018-03-23T03:14:54.360Z,83.95
2018-03-23T03:17:21.900Z,83.99
2018-03-23T03:19:49.388Z,83.74
2018-03-23T03:22:16.984Z,84.11
2018-03-23T03:24:44.479Z,84.08
2018-03-23T03:27:12.111Z,83.57
2018-03-23T03:29:39.624Z,83.56
2018-03-23T03:32:07.151Z,83.92
2018-03-23T03:34:34.675Z,82.89
2018-03-23T03:37:02.200Z,83.41
2018-03-23T03:39:29.711Z,83.64
2018-03-23T03:41:57.259Z,83.82
2018-03-23T03:44:24.764Z,83.10
2018-03-23T03:46:52.253Z,83.13
2018-03-23T03:49:19.767Z,83.46
2018-03-23T03:51:47.272Z,82.86
2018-03-23T03:54:14.796Z,83.46
2018-03-23T03:56:42.289Z,83.91
2018-03-23T03:59:09.828Z,83.98
2018-03-23T04:01:37.347Z,83.86
2018-03-23T04:04:04.871Z,83.89
2018-03-23T04:06:32.412Z,83.89
2018-03-23T04:08:59.937Z,83.82
2018-03-23T04:11:27.447Z,83.94
2018-03-23T04:13:54.963Z,83.62
2018-03-23T04:16:22.459Z,83.76
2018-03-23T04:18:49.973Z,83.71
2018-03-23T04:21:17.463Z,83.95
2018-03-23T04:23:44.999Z,83.88
2018-03-23T04:26:12.503Z,83.22
2018-03-23T04:28:40.041Z,83.28
2018-03-23T04:31:07.540Z,83.71
2018-03-23T04:33:35.060Z,84.05
2018-03-23T04:36:02.561Z,84.21
2018-03-23T04:38:30.088Z,84.38
2018-03-23T04:40:57.579Z,84.31
2018-03-23T04:43:25.088Z,84.47
2018-03-23T04:45:52.621Z,84.49
2018-03-23T04:48:20.116Z,84.54
2018-03-23T04:50:47.705Z,83.92
2018-03-23T04:53:15.224Z,83.30
2018-03-23T04:55:42.815Z,83.47
2018-03-23T04:58:10.374Z,83.57
2018-03-23T05:00:37.892Z,83.80
2018-03-23T05:03:05.390Z,83.51
2018-03-23T05:05:32.964Z,83.87
2018-03-23T05:08:00.511Z,83.83
2018-03-23T05:10:28.072Z,84.02
2018-03-23T05:12:55.565Z,83.88
2018-03-23T05:15:23.159Z,84.16
2018-03-23T05:17:50.723Z,84.08
2018-03-23T05:20:18.275Z,83.87
2018-03-23T05:22:45.875Z,83.92
2018-03-23T05:25:13.403Z,83.93
2018-03-23T05:27:40.913Z,83.30
2018-03-23T05:30:08.436Z,83.02
2018-03-23T05:32:35.955Z,83.50
2018-03-23T05:35:03.481Z,83.54
2018-03-23T05:37:30.967Z,83.00
2018-03-23T05:39:58.497Z,83.23
2018-03-23T05:42:26.060Z,83.09
2018-03-23T05:44:53.620Z,83.38
2018-03-23T05:47:21.148Z,83.43
2018-03-23T05:49:48.644Z,83.42
2018-03-23T05:52:16.192Z,83.32
2018-03-23T05:54:43.721Z,83.68
2018-03-23T05:57:11.241Z,83.33
2018-03-23T05:59:38.824Z,82.71
2018-03-23T06:02:06.350Z,82.66
2018-03-23T06:04:33.839Z,82.85
2018-03-23T06:07:01.453Z,82.40
2018-03-23T06:09:28.995Z,82.38
2018-03-23T06:11:56.526Z,82.22
2018-03-23T06:14:24.043Z,82.30
2018-03-23T06:16:51.585Z,81.83
2018-03-23T06:19:19.087Z,81.54
2018-03-23T06:21:46.604Z,81.54
2018-03-23T06:24:14.109Z,82.27
2018-03-23T06:26:41.716Z,81.92
2018-03-23T06:29:09.259Z,81.94
2018-03-23T06:31:36.779Z,81.94
2018-03-23T06:34:04.276Z,82.13
2018-03-23T06:36:31.848Z,81.53
2018-03-23T06:38:59.424Z,82.11
2018-03-23T06:41:27.002Z,82.17
2018-03-23T06:43:54.528Z,81.92
2018-03-23T06:46:22.108Z,81.67
2018-03-23T06:48:49.643Z,79.71
2018-03-23T06:51:17.140Z,79.50
2018-03-23T06:53:44.680Z,79.44
2018-03-23T06:56:12.220Z,79.42
2018-03-23T06:58:39.807Z,77.92
2018-03-23T07:01:07.320Z,77.54
2018-03-23T07:03:34.835Z,77.52
2018-03-23T07:06:02.329Z,77.87
2018-03-23T07:08:29.855Z,76.42
2018-03-23T07:10:57.352Z,76.73
2018-03-23T07:13:24.882Z,76.95
2018-03-23T07:15:52.379Z,76.83
2018-03-23T07:18:19.960Z,77.20
2018-03-23T07:20:47.511Z,75.77
2018-03-23T07:23:15.053Z,75.53
2018-03-23T07:25:42.608Z,74.77
2018-03-23T07:28:10.173Z,74.56
2018-03-23T07:30:37.742Z,73.65
2018-03-23T07:33:05.278Z,75.06
2018-03-23T07:35:32.772Z,74.13
2018-03-23T07:38:00.292Z,73.22
2018-03-23T07:40:27.781Z,71.66
2018-03-23T07:43:03.336Z,70.71
2018-03-23T07:45:35.007Z,71.52
2018-03-23T07:48:05.920Z,70.79
2018-03-23T07:50:36.204Z,71.22
2018-03-23T07:53:04.680Z,73.43
2018-03-23T07:55:35.435Z,68.52
2018-03-23T07:58:07.624Z,68.66
2018-03-23T08:00:36.076Z,69.47
2018-03-23T08:03:06.530Z,67.49
2018-03-23T08:05:38.488Z,66.22
2018-03-23T08:08:08.237Z,68.48
2018-03-23T08:10:38.960Z,67.59
2018-03-23T08:13:11.003Z,66.89
2018-03-23T08:15:40.523Z,68.10
2018-03-23T08:18:08.812Z,69.22
2018-03-23T08:20:37.316Z,69.48
2018-03-23T08:23:08.309Z,69.31
2018-03-23T08:25:38.262Z,66.50
2018-03-23T08:28:08.460Z,66.37
2018-03-23T08:30:38.723Z,65.59
2018-03-23T08:33:10.242Z,64.56
2018-03-23T08:35:39.030Z,65.35
2018-03-23T08:38:07.324Z,65.19
2018-03-23T08:40:35.808Z,65.99
2018-03-23T08:43:05.154Z,67.11
2018-03-23T08:45:35.110Z,66.74
2018-03-23T08:48:04.707Z,66.52
2018-03-23T08:50:34.216Z,65.63
2018-03-23T08:53:03.135Z,66.91
2018-03-23T08:55:31.637Z,67.55
2018-03-23T08:58:00.923Z,66.98
2018-03-23T09:00:30.493Z,67.62
2018-03-23T09:03:00.512Z,66.64
2018-03-23T09:05:31.262Z,66.39
2018-03-23T09:08:00.221Z,66.16
2018-03-23T09:10:31.367Z,64.45
2018-03-23T09:13:03.804Z,64.61
2018-03-23T09:15:33.764Z,63.77
2018-03-23T09:18:02.693Z,61.68
2018-03-23T09:20:32.036Z,62.32
2018-03-23T09:23:16.476Z,60.67
2018-03-23T09:25:46.412Z,60.69
2018-03-23T09:28:17.433Z,60.83
2018-03-23T09:30:49.659Z,59.43
2018-03-23T09:33:21.952Z,58.60
2018-03-23T09:35:50.925Z,58.18
2018-03-23T09:38:24.479Z,56.05
2018-03-23T09:40:55.367Z,57.68
2018-03-23T09:43:24.595Z,57.10
2018-03-23T09:45:53.142Z,57.09
2018-03-23T09:48:27.470Z,57.07
2018-03-23T09:50:58.354Z,58.47
2018-03-23T09:53:29.514Z,56.40
2018-03-23T09:58:42.918Z,54.80
2018-03-23T10:01:20.269Z,54.50
2018-03-23T10:03:49.411Z,53.22
2018-03-23T10:06:18.141Z,52.93
2018-03-23T10:08:47.154Z,52.87
2018-03-23T10:11:16.295Z,51.43
2018-03-23T10:13:47.529Z,52.09
2018-03-23T10:16:17.748Z,50.90
2018-03-23T10:18:46.400Z,51.40
2018-03-23T10:21:14.707Z,50.69
2018-03-23T10:23:46.223Z,51.41
2018-03-23T10:26:16.659Z,51.11
2018-03-23T10:28:45.212Z,52.09
2018-03-23T10:31:14.730Z,50.95
2018-03-23T10:33:42.942Z,50.70
2018-03-23T10:36:11.648Z,49.87
2018-03-23T10:38:42.540Z,45.84
2018-03-23T10:41:15.377Z,42.98
2018-03-23T10:43:45.441Z,39.60
2018-03-23T10:46:17.666Z,37.23
2018-03-23T10:48:48.059Z,36.74
2018-03-23T10:51:17.194Z,32.32
2018-03-23T10:53:46.982Z,29.77
2018-03-23T10:56:22.340Z,32.74
2018-03-23T10:59:12.447Z,33.27
2018-03-23T11:01:45.589Z,33.95
2018-03-23T11:04:15.294Z,31.09
2018-03-23T11:06:45.867Z,29.84
2018-03-23T11:09:18.893Z,30.68
2018-03-23T11:11:46.500Z,32.24
2018-03-23T11:14:14.000Z,30.37
2018-03-23T11:16:41.615Z,33.96
2018-03-23T11:19:09.099Z,34.90
2018-03-23T11:21:36.644Z,34.99
2018-03-23T11:24:04.666Z,35.16
2018-03-23T11:26:32.228Z,32.07
2018-03-23T11:28:59.735Z,30.68
2018-03-23T11:31:27.253Z,28.36
2018-03-23T11:33:54.843Z,28.09
2018-03-23T11:36:22.355Z,26.26
2018-03-23T11:38:49.874Z,26.52
2018-03-23T11:41:17.387Z,30.73
2018-03-23T11:43:45.105Z,31.44
2018-03-23T11:46:12.624Z,32.07
2018-03-23T11:48:40.203Z,35.31
2018-03-23T11:51:07.702Z,33.38
2018-03-23T11:53:35.339Z,32.57
2018-03-23T11:56:02.841Z,32.47
2018-03-23T11:58:30.400Z,30.33
2018-03-23T12:00:57.911Z,32.23
2018-03-23T12:03:25.424Z,33.16
2018-03-23T12:05:52.915Z,34.79
2018-03-23T12:08:20.440Z,35.82
2018-03-23T12:10:47.932Z,34.31
2018-03-23T12:13:15.464Z,36.39
2018-03-23T12:15:42.978Z,34.88
2018-03-23T12:18:10.501Z,38.66
2018-03-23T12:20:37.987Z,38.18
2018-03-23T12:23:05.508Z,27.53
2018-03-23T12:25:33.104Z,28.38
2018-03-23T12:28:00.643Z,29.75
2018-03-23T12:30:28.226Z,32.10
2018-03-23T12:32:55.744Z,32.98
2018-03-23T12:35:23.232Z,30.66
2018-03-23T12:37:50.793Z,31.21
2018-03-23T12:40:18.356Z,33.95
2018-03-23T12:42:45.928Z,32.10
2018-03-23T12:45:13.445Z,26.34
2018-03-23T12:47:40.976Z,26.96
2018-03-23T12:50:08.535Z,25.02
2018-03-23T12:52:36.036Z,20.05
2018-03-23T12:55:03.535Z,19.96
2018-03-23T12:57:31.048Z,18.25
2018-03-23T12:59:58.543Z,21.97
2018-03-23T13:02:26.070Z,24.04
2018-03-23T13:04:53.630Z,22.56
2018-03-23T13:07:21.193Z,25.61
2018-03-23T13:09:48.719Z,24.22
2018-03-23T13:12:16.215Z,21.45
2018-03-23T13:14:43.735Z,17.98
2018-03-23T13:17:11.323Z,17.95
2018-03-23T13:19:38.888Z,18.97
2018-03-23T13:22:06.409Z,19.21
2018-03-23T13:24:33.924Z,16.49
2018-03-23T13:27:01.485Z,16.98
2018-03-23T13:29:29.004Z,17.85
2018-03-23T13:31:56.491Z,17.29
2018-03-23T13:34:24.040Z,18.61
2018-03-23T13:36:51.536Z,16.79
2018-03-23T13:39:19.081Z,15.99
2018-03-23T13:41:46.570Z,15.91
2018-03-23T13:44:14.101Z,16.28
2018-03-23T13:46:41.613Z,16.04
2018-03-23T13:49:09.151Z,18.72
2018-03-23T13:51:36.643Z,16.92
2018-03-23T13:54:04.168Z,16.50
2018-03-23T13:56:31.667Z,15.70
2018-03-23T13:59:04.887Z,14.49
2018-03-23T14:01:37.948Z,14.11
2018-03-23T14:04:05.483Z,15.11
2018-03-23T14:06:32.996Z,13.91
2018-03-23T14:09:00.633Z,14.28
2018-03-23T14:11:28.125Z,15.55
2018-03-23T14:13:55.761Z,13.17
2018-03-23T14:16:23.329Z,14.22
2018-03-23T14:18:50.843Z,15.36
2018-03-23T14:21:18.354Z,20.23
2018-03-23T14:23:45.902Z,21.58
2018-03-23T14:26:13.439Z,18.00
2018-03-23T14:28:41.050Z,16.80
2018-03-23T14:31:08.560Z,16.47
2018-03-23T14:33:36.133Z,21.17
2018-03-23T14:36:03.710Z,23.30
2018-03-23T14:38:31.263Z,24.86
2018-03-23T14:40:58.756Z,21.90
2018-03-23T14:43:26.282Z,17.28
2018-03-23T14:45:53.947Z,16.83
2018-03-23T14:48:21.600Z,18.42
2018-03-23T14:50:49.105Z,17.43
2018-03-23T14:53:16.632Z,15.20
2018-03-23T14:55:44.161Z,14.07
2018-03-23T14:58:11.733Z,12.73
2018-03-23T15:00:39.243Z,12.93
2018-03-23T15:03:06.750Z,16.93
2018-03-23T15:05:34.327Z,15.00
2018-03-23T15:08:01.831Z,16.66
2018-03-23T15:10:29.353Z,15.59
2018-03-23T15:12:56.992Z,17.30
2018-03-23T15:15:24.757Z,18.87
2018-03-23T15:17:52.354Z,19.54
2018-03-23T15:20:20.095Z,20.82
2018-03-23T15:22:47.685Z,20.36
2018-03-23T15:25:15.401Z,20.58
2018-03-23T15:27:42.960Z,21.79
2018-03-23T15:30:10.609Z,22.42
2018-03-23T15:32:38.187Z,22.15
2018-03-23T15:35:05.861Z,26.43
2018-03-23T15:37:33.524Z,25.19
2018-03-23T15:40:01.187Z,26.71
2018-03-23T15:42:28.831Z,25.90
2018-03-23T15:44:56.512Z,25.76
2018-03-23T15:47:24.173Z,25.11
2018-03-23T15:49:51.836Z,24.16
2018-03-23T15:52:19.391Z,26.90
2018-03-23T15:54:47.038Z,29.77
2018-03-23T15:57:14.718Z,32.07
2018-03-23T15:59:42.484Z,32.80
2018-03-23T16:02:10.093Z,33.30
2018-03-23T16:04:37.705Z,33.79
2018-03-23T16:07:05.264Z,34.23
2018-03-23T16:09:32.928Z,36.51
2018-03-23T16:12:00.469Z,35.57
2018-03-23T16:14:28.150Z,36.54
2018-03-23T16:16:56.838Z,32.41
2018-03-23T16:19:25.418Z,31.07
2018-03-23T16:21:52.978Z,29.59
2018-03-23T16:24:20.642Z,32.51
2018-03-23T16:26:48.200Z,35.27
2018-03-23T16:29:15.742Z,34.39
2018-03-23T16:31:43.310Z,35.88
2018-03-23T16:34:10.852Z,36.18
2018-03-23T16:36:38.577Z,38.03
2018-03-23T16:39:06.209Z,39.24
2018-03-23T16:41:33.846Z,38.33
2018-03-23T16:44:01.557Z,38.28
2018-03-23T16:46:29.933Z,40.02
2018-03-23T16:48:57.706Z,40.44
2018-03-23T16:51:25.317Z,40.86
2018-03-23T16:53:52.997Z,40.90
2018-03-23T16:56:20.686Z,41.15
2018-03-23T16:58:48.256Z,40.85
2018-03-23T17:01:15.986Z,40.84
2018-03-23T17:03:43.676Z,41.47
2018-03-23T17:06:11.388Z,42.72
2018-03-23T17:08:39.099Z,42.44
2018-03-23T17:11:06.737Z,43.34
2018-03-23T17:13:34.372Z,44.16
2018-03-23T17:16:02.189Z,44.11
2018-03-23T17:18:29.854Z,44.36
2018-03-23T17:20:57.514Z,44.87
2018-03-23T17:23:25.131Z,45.22
2018-03-23T17:25:52.733Z,45.05
2018-03-23T17:28:20.499Z,45.87
2018-03-23T17:30:48.418Z,45.98
2018-03-23T17:33:15.978Z,46.60
2018-03-23T17:35:43.689Z,46.44
2018-03-23T17:38:11.441Z,46.50
2018-03-23T17:40:39.111Z,46.81
2018-03-23T17:43:06.778Z,47.20
2018-03-23T17:45:34.544Z,47.45
2018-03-23T17:48:02.328Z,47.93
2018-03-23T17:50:30.072Z,48.44
2018-03-23T17:52:57.629Z,48.63
2018-03-23T17:55:25.300Z,48.76
2018-03-23T17:57:52.955Z,48.47
2018-03-23T18:00:20.680Z,48.83
2018-03-23T18:02:48.384Z,49.35
2018-03-23T18:05:16.020Z,50.11
2018-03-23T18:07:43.551Z,49.93
2018-03-23T18:10:11.271Z,50.18
2018-03-23T18:12:38.927Z,50.81
2018-03-23T18:15:06.793Z,51.49
2018-03-23T18:17:34.778Z,52.21
2018-03-23T18:20:02.425Z,52.58
2018-03-23T18:22:30.299Z,52.82
2018-03-23T18:24:58.064Z,54.37
2018-03-23T18:27:25.707Z,54.04
2018-03-23T18:29:53.444Z,54.36
2018-03-23T18:32:22.372Z,54.91
2018-03-23T18:34:50.035Z,55.51
2018-03-23T18:37:17.695Z,55.94
2018-03-23T18:39:45.256Z,56.29
2018-03-23T18:42:12.917Z,57.18
2018-03-23T18:44:40.682Z,56.99
2018-03-23T18:47:08.343Z,57.40
2018-03-23T18:49:36.073Z,57.93
2018-03-23T18:52:03.873Z,58.40
2018-03-23T18:54:31.542Z,59.24
2018-03-23T18:56:59.196Z,59.82
2018-03-23T18:59:26.859Z,61.77
2018-03-23T19:01:54.548Z,61.30
2018-03-23T19:04:22.180Z,62.63
2018-03-23T19:06:49.844Z,63.59
2018-03-23T19:09:17.505Z,62.87
2018-03-23T19:11:45.286Z,63.66
2018-03-23T19:14:13.649Z,64.38
2018-03-23T19:16:41.309Z,65.22
2018-03-23T19:19:08.919Z,65.86
2018-03-23T19:21:36.533Z,65.30
2018-03-23T19:24:04.312Z,65.80
2018-03-23T19:26:31.957Z,66.38
2018-03-23T19:28:59.621Z,66.83
2018-03-23T19:31:27.384Z,66.73
2018-03-23T19:33:55.004Z,67.05
2018-03-23T19:36:22.713Z,68.22
2018-03-23T19:38:50.367Z,68.22
2018-03-23T19:41:18.237Z,68.96
2018-03-23T19:43:45.814Z,68.82
2018-03-23T19:46:13.571Z,69.59
2018-03-23T19:48:41.528Z,69.76
2018-03-23T19:51:09.397Z,69.32
2018-03-23T19:53:37.976Z,69.59
2018-03-23T19:56:05.590Z,70.05
2018-03-23T19:58:33.301Z,70.50
2018-03-23T20:01:00.969Z,70.67
2018-03-23T20:03:28.727Z,70.77
2018-03-23T20:05:56.491Z,71.31
2018-03-23T20:08:24.152Z,71.14
2018-03-23T20:10:51.814Z,71.53
2018-03-23T20:13:19.582Z,71.19
2018-03-23T20:15:47.447Z,71.74
2018-03-23T20:18:20.843Z,72.19
2018-03-23T20:20:54.202Z,72.50
2018-03-23T20:23:24.973Z,72.05
2018-03-23T20:25:52.633Z,71.87
2018-03-23T20:28:25.932Z,72.15
2018-03-23T20:30:53.599Z,71.96
2018-03-23T20:33:21.353Z,71.11
2018-03-23T20:35:49.075Z,71.46
2018-03-23T20:38:16.780Z,71.26
2018-03-23T20:40:44.451Z,71.66
2018-03-23T20:43:12.112Z,71.62
2018-03-23T20:45:39.767Z,72.00
2018-03-23T20:48:07.324Z,72.76
2018-03-23T20:50:34.986Z,73.09
2018-03-23T20:53:02.756Z,73.66
2018-03-23T20:55:30.465Z,73.50
2018-03-23T20:57:58.074Z,73.88
2018-03-23T21:00:25.839Z,73.98
2018-03-23T21:02:53.734Z,73.98
2018-03-23T21:05:21.375Z,74.71
2018-03-23T21:07:49.903Z,74.08
2018-03-23T21:10:17.512Z,74.02
2018-03-23T21:12:47.334Z,74.44
2018-03-23T21:15:15.906Z,74.93
2018-03-23T21:17:43.449Z,75.75
2018-03-23T21:20:11.130Z,75.94
2018-03-23T21:22:39.822Z,75.62
2018-03-23T21:25:07.425Z,75.83
2018-03-23T21:27:39.552Z,75.88
2018-03-23T21:30:09.357Z,76.65
2018-03-23T21:32:37.936Z,76.64
2018-03-23T21:35:05.597Z,76.20
2018-03-23T21:37:33.125Z,76.24
2018-03-23T21:40:01.739Z,76.66
2018-03-23T21:42:29.519Z,77.15
2018-03-23T21:44:57.165Z,77.43
2018-03-23T21:47:24.931Z,77.40
2018-03-23T21:49:52.608Z,77.28
2018-03-23T21:52:20.151Z,77.26
2018-03-23T21:54:47.932Z,77.60
2018-03-23T21:57:15.600Z,77.52
2018-03-23T21:59:43.342Z,78.17
2018-03-23T22:02:11.022Z,77.95
2018-03-23T22:04:38.670Z,77.16
2018-03-23T22:07:06.327Z,76.94
2018-03-23T22:09:34.009Z,77.03
2018-03-23T22:12:01.753Z,77.22
2018-03-23T22:14:29.435Z,77.35
2018-03-23T22:16:57.202Z,77.90
2018-03-23T22:19:24.799Z,78.00
2018-03-23T22:21:52.502Z,78.23
2018-03-23T22:24:20.219Z,78.58
2018-03-23T22:26:47.934Z,78.86
2018-03-23T22:29:15.650Z,79.51
2018-03-23T22:31:43.380Z,79.91
2018-03-23T22:34:11.040Z,79.78
2018-03-23T22:36:38.733Z,80.17
2018-03-23T22:39:06.441Z,80.49
2018-03-23T22:41:34.126Z,80.73
2018-03-23T22:44:01.664Z,80.87
2018-03-23T22:46:29.354Z,80.92
2018-03-23T22:48:57.017Z,80.83
2018-03-23T22:51:24.649Z,81.14
2018-03-23T22:53:52.395Z,81.37
2018-03-23T22:56:20.077Z,81.46
2018-03-23T22:58:47.637Z,81.10
2018-03-23T23:01:16.628Z,80.96
2018-03-23T23:03:44.449Z,80.87
2018-03-23T23:06:12.312Z,81.16
2018-03-23T23:08:39.894Z,81.11
2018-03-23T23:11:07.541Z,81.24
2018-03-23T23:13:35.403Z,81.32
2018-03-23T23:16:03.067Z,81.46
2018-03-23T23:18:30.631Z,81.68
2018-03-23T23:20:58.394Z,81.52
2018-03-23T23:23:26.198Z,81.55
2018-03-23T23:25:54.016Z,81.59
2018-03-23T23:28:21.986Z,81.38
2018-03-23T23:30:49.752Z,81.15
2018-03-23T23:33:17.497Z,81.11
2018-03-23T23:35:45.251Z,81.25
2018-03-23T23:38:12.999Z,81.44
2018-03-23T23:40:40.708Z,81.77
2018-03-23T23:43:08.702Z,81.92
2018-03-23T23:45:36.384Z,82.05
2018-03-23T23:48:04.108Z,82.45
2018-03-23T23:50:31.764Z,82.60
2018-03-23T23:52:59.473Z,82.82
2018-03-23T23:55:27.092Z,83.00
2018-03-23T23:57:54.746Z,82.94
